Time;durP1;ratioP1;P1;durP2;ratioP2;P2;SDS_P1;SDS_P2;PMS_P1;PMS_P2;Temp;Humidity;BMP_temperature;BMP_pressure;BME280_temperature;BME280_humidity;BME280_pressure;Samples;Min_cycle;Max_cycle;Signal;HPM_P1;HPM_P2
2021/09/02 00:00:36;;;;;;;12.73;4.35;;;;;;;12.30;100.00;101725.91;5054868;28;20055;-86
2021/09/02 00:03:02;;;;;;;16.05;5.60;;;;;;;12.31;100.00;101725.03;5057248;28;20060;-86
2021/09/02 00:05:27;;;;;;;13.75;4.72;;;;;;;12.24;100.00;101715.53;5055309;28;20020;-85
2021/09/02 00:07:53;;;;;;;15.60;4.75;;;;;;;12.26;100.00;101711.19;5052322;28;20432;-85
2021/09/02 00:10:18;;;;;;;14.43;5.32;;;;;;;12.24;100.00;101710.34;5051989;28;20017;-85
2021/09/02 00:12:43;;;;;;;14.68;4.60;;;;;;;12.20;100.00;101712.97;5052342;28;20033;-85
2021/09/02 00:15:09;;;;;;;16.58;4.75;;;;;;;12.20;100.00;101705.16;5052259;28;20066;-85
2021/09/02 00:17:34;;;;;;;13.77;4.78;;;;;;;12.24;100.00;101705.13;5052221;28;20025;-85
2021/09/02 00:20:00;;;;;;;17.20;4.72;;;;;;;12.19;100.00;101707.75;5053271;28;20106;-85
2021/09/02 00:22:25;;;;;;;14.30;4.35;;;;;;;12.19;100.00;101713.84;5052167;28;20020;-85
2021/09/02 00:24:50;;;;;;;10.55;4.10;;;;;;;12.19;100.00;101711.25;5053267;28;20033;-85
2021/09/02 00:27:16;;;;;;;15.70;4.82;;;;;;;12.18;100.00;101711.22;5055994;28;20032;-85
2021/09/02 00:29:41;;;;;;;12.90;4.90;;;;;;;12.23;100.00;101709.47;5056256;28;20024;-85
2021/09/02 00:32:07;;;;;;;16.58;4.95;;;;;;;12.19;100.00;101707.75;5055737;28;20049;-85
2021/09/02 00:34:32;;;;;;;15.32;4.75;;;;;;;12.19;100.00;101711.25;5055922;28;20078;-85
2021/09/02 00:36:58;;;;;;;14.20;4.53;;;;;;;12.18;100.00;101698.22;5057086;28;20033;-86
2021/09/02 00:39:23;;;;;;;18.02;4.70;;;;;;;12.15;100.00;101704.31;5057179;28;20028;-86
2021/09/02 00:41:48;;;;;;;13.80;4.35;;;;;;;12.09;100.00;101701.75;5056020;28;20021;-85
2021/09/02 00:44:34;;;;;;;16.70;4.75;;;;;;;12.10;100.00;101703.50;5055911;28;20017;-85
2021/09/02 00:47:01;;;;;;;13.90;4.18;;;;;;;12.08;100.00;101700.03;5055779;28;20557;-85
2021/09/02 00:49:28;;;;;;;14.68;4.47;;;;;;;12.13;100.00;101694.78;5055699;28;20020;-86
2021/09/02 00:51:53;;;;;;;10.55;5.05;;;;;;;12.11;100.00;101701.75;5055233;28;20076;-85
2021/09/02 00:54:18;;;;;;;15.52;5.18;;;;;;;12.12;100.00;101690.47;5060587;28;20028;-85
2021/09/02 00:56:44;;;;;;;12.70;4.25;;;;;;;12.12;100.00;101690.47;5057286;28;20477;-85
2021/09/02 00:59:09;;;;;;;16.55;4.45;;;;;;;12.09;100.00;101696.53;5055565;28;20036;-85
2021/09/02 01:01:34;;;;;;;14.60;5.00;;;;;;;12.08;100.00;101686.16;5056420;28;20508;-85
2021/09/02 01:04:03;;;;;;;12.80;4.22;;;;;;;12.04;100.00;101694.84;5055530;28;20111;-85
2021/09/02 01:06:28;;;;;;;13.55;3.97;;;;;;;12.03;100.00;101691.38;5056637;28;20039;-85
2021/09/02 01:08:53;;;;;;;18.02;4.82;;;;;;;12.02;100.00;101684.47;5056599;28;20021;-86
2021/09/02 01:11:19;;;;;;;15.38;4.43;;;;;;;12.04;100.00;101687.03;5055085;28;20068;-86
2021/09/02 01:13:44;;;;;;;13.35;4.50;;;;;;;12.06;100.00;101687.91;5055281;28;20024;-86
2021/09/02 01:16:09;;;;;;;9.75;4.15;;;;;;;12.05;100.00;101694.84;5055293;28;20021;-86
2021/09/02 01:18:34;;;;;;;15.65;4.75;;;;;;;12.04;100.00;101694.84;5055041;28;20119;-86
2021/09/02 01:20:59;;;;;;;15.18;4.28;;;;;;;12.05;100.00;101684.44;5054991;28;20040;-86
2021/09/02 01:23:25;;;;;;;11.63;3.97;;;;;;;12.02;100.00;101688.81;5055381;28;20397;-86
2021/09/02 01:25:50;;;;;;;15.75;4.53;;;;;;;11.97;100.00;101681.88;5055173;28;20025;-86
2021/09/02 01:28:16;;;;;;;16.20;4.47;;;;;;;12.01;100.00;101676.66;5054926;28;20025;-85
2021/09/02 01:30:42;;;;;;;12.63;4.53;;;;;;;11.93;100.00;101676.72;5054873;28;20021;-86
2021/09/02 01:33:09;;;;;;;13.05;4.40;;;;;;;11.96;100.00;101685.34;5054877;28;20021;-86
2021/09/02 01:35:34;;;;;;;13.00;5.07;;;;;;;11.95;100.00;101672.38;5054707;28;20444;-86
2021/09/02 01:38:05;;;;;;;10.95;4.03;;;;;;;11.98;100.00;101678.44;5056010;28;20051;-85
2021/09/02 01:40:36;;;;;;;12.10;4.22;;;;;;;11.97;100.00;101681.88;5056189;28;20028;-85
2021/09/02 01:43:03;;;;;;;13.77;4.50;;;;;;;11.99;100.00;101679.28;5058408;28;20052;-85
2021/09/02 01:45:29;;;;;;;9.77;3.95;;;;;;;12.06;100.00;101674.91;5054643;28;20067;-85
2021/09/02 01:47:56;;;;;;;13.15;4.53;;;;;;;12.09;100.00;101680.94;5054684;28;20029;-86
2021/09/02 01:50:22;;;;;;;12.68;4.25;;;;;;;12.06;100.00;101675.75;5054522;28;20067;-86
2021/09/02 01:52:50;;;;;;;13.57;4.53;;;;;;;12.06;100.00;101680.09;5054671;28;20439;-86
2021/09/02 01:55:16;;;;;;;19.08;4.88;;;;;;;12.05;100.00;101678.38;5054598;28;20021;-86
2021/09/02 01:57:42;;;;;;;16.35;4.30;;;;;;;12.06;100.00;101683.56;5054678;28;20086;-86
2021/09/02 02:00:10;;;;;;;20.42;5.50;;;;;;;12.14;100.00;101680.94;5054349;28;20043;-86
2021/09/02 02:02:35;;;;;;;15.95;4.53;;;;;;;12.16;100.00;101677.44;5054331;28;20059;-85
2021/09/02 02:05:00;;;;;;;14.30;4.65;;;;;;;12.23;100.00;101680.88;5054366;28;20020;-85
2021/09/02 02:07:26;;;;;;;15.55;4.53;;;;;;;12.25;100.00;101680.84;5054314;28;20059;-85
2021/09/02 02:09:51;;;;;;;13.15;4.82;;;;;;;12.21;100.00;101675.66;5055461;28;20079;-85
2021/09/02 02:12:16;;;;;;;15.52;4.07;;;;;;;12.17;100.00;101673.97;5055329;28;20058;-85
2021/09/02 02:14:42;;;;;;;12.80;4.65;;;;;;;12.18;100.00;101680.03;5055491;28;20021;-85
2021/09/02 02:17:07;;;;;;;12.98;4.45;;;;;;;12.13;100.00;101682.66;5054056;28;20520;-85
2021/09/02 02:19:32;;;;;;;16.50;4.72;;;;;;;12.12;100.00;101688.72;5053991;28;20412;-85
2021/09/02 02:21:58;;;;;;;16.75;4.20;;;;;;;12.06;100.00;101680.97;5055286;28;20032;-85
2021/09/02 02:24:23;;;;;;;17.33;4.97;;;;;;;12.01;100.00;101674.94;5053897;28;20025;-86
2021/09/02 02:26:48;;;;;;;13.73;5.10;;;;;;;12.01;100.00;101681.84;5053801;28;20111;-86
2021/09/02 02:29:14;;;;;;;13.77;4.82;;;;;;;11.94;100.00;101679.28;5053825;28;20033;-86
2021/09/02 02:31:39;;;;;;;11.98;4.97;;;;;;;11.92;100.00;101675.00;5053485;28;20025;-86
2021/09/02 02:34:04;;;;;;;17.52;5.53;;;;;;;11.93;100.00;101679.31;5055338;28;20033;-86
2021/09/02 02:36:30;;;;;;;14.88;5.05;;;;;;;11.94;100.00;101673.22;5055004;28;20435;-85
2021/09/02 02:38:55;;;;;;;14.00;4.95;;;;;;;11.94;100.00;101673.22;5054927;28;20039;-85
2021/09/02 02:41:21;;;;;;;16.38;5.82;;;;;;;11.97;100.00;101668.88;5054648;28;20025;-85
2021/09/02 02:43:46;;;;;;;16.33;5.50;;;;;;;11.95;100.00;101677.59;5053636;28;20033;-85
2021/09/02 02:46:12;;;;;;;19.10;5.18;;;;;;;11.96;100.00;101671.50;5054793;28;20029;-86
2021/09/02 02:48:37;;;;;;;14.48;4.80;;;;;;;12.00;100.00;101672.34;5053632;28;20634;-86
2021/09/02 02:51:02;;;;;;;16.27;5.45;;;;;;;12.00;100.00;101670.59;5054641;28;20473;-86
2021/09/02 02:53:28;;;;;;;17.85;5.63;;;;;;;11.95;100.00;101668.03;5053334;28;20025;-85
2021/09/02 02:55:53;;;;;;;14.10;5.63;;;;;;;11.94;100.00;101666.28;5053367;28;20020;-85
2021/09/02 02:58:18;;;;;;;15.88;5.80;;;;;;;11.93;100.00;101671.53;5053436;28;20445;-85
2021/09/02 03:00:43;;;;;;;16.75;5.57;;;;;;;11.89;100.00;101669.81;5053203;28;20032;-85
2021/09/02 03:03:09;;;;;;;16.60;5.70;;;;;;;11.88;100.00;101670.66;5053295;28;20423;-86
2021/09/02 03:05:34;;;;;;;16.55;6.85;;;;;;;11.88;100.00;101673.28;5054353;28;20024;-86
2021/09/02 03:07:59;;;;;;;23.65;6.65;;;;;;;11.86;100.00;101675.91;5054442;28;20028;-86
2021/09/02 03:10:24;;;;;;;17.95;5.95;;;;;;;11.90;100.00;101668.94;5053005;28;20021;-86
2021/09/02 03:12:50;;;;;;;16.35;5.95;;;;;;;11.86;100.00;101667.25;5053434;28;20029;-86
2021/09/02 03:15:15;;;;;;;16.27;6.50;;;;;;;11.84;100.00;101669.78;5053511;28;20056;-86
2021/09/02 03:17:41;;;;;;;19.17;7.55;;;;;;;11.81;100.00;101669.81;5053776;28;20021;-86
2021/09/02 03:20:06;;;;;;;15.82;6.20;;;;;;;11.77;100.00;101672.44;5056612;28;20473;-86
2021/09/02 03:22:32;;;;;;;20.08;6.38;;;;;;;11.74;100.00;101671.59;5058021;28;20041;-86
2021/09/02 03:24:57;;;;;;;20.40;6.88;;;;;;;11.65;100.00;101671.63;5054027;28;20029;-86
2021/09/02 03:27:23;;;;;;;17.65;6.85;;;;;;;11.61;100.00;101664.72;5053956;28;20029;-86
2021/09/02 03:29:48;;;;;;;17.65;6.47;;;;;;;11.56;100.00;101668.22;5053883;28;20036;-86
2021/09/02 03:32:13;;;;;;;16.27;5.97;;;;;;;11.51;100.00;101668.22;5052731;28;20098;-86
2021/09/02 03:34:38;;;;;;;14.30;5.90;;;;;;;11.43;100.00;101681.25;5052460;28;20032;-86
2021/09/02 03:37:04;;;;;;;15.88;6.28;;;;;;;11.40;100.00;101675.22;5052486;28;20047;-86
2021/09/02 03:39:29;;;;;;;16.60;5.97;;;;;;;11.41;100.00;101674.34;5052552;28;20021;-86
2021/09/02 03:41:54;;;;;;;15.93;6.43;;;;;;;11.35;100.00;101674.34;5052497;28;20449;-86
2021/09/02 03:44:20;;;;;;;19.35;6.57;;;;;;;11.39;100.00;101682.16;5052447;28;20032;-86
2021/09/02 03:46:45;;;;;;;21.67;6.80;;;;;;;11.39;100.00;101679.56;5053715;28;20024;-86
2021/09/02 03:49:10;;;;;;;23.95;7.47;;;;;;;11.44;100.00;101677.78;5056509;28;20028;-86
2021/09/02 03:51:35;;;;;;;20.55;7.10;;;;;;;11.40;100.00;101678.66;5058291;28;20393;-86
2021/09/02 03:54:01;;;;;;;17.73;6.47;;;;;;;11.51;100.00;101681.22;5052539;28;20068;-86
2021/09/02 03:56:26;;;;;;;15.75;6.88;;;;;;;11.55;100.00;101682.09;5052460;28;20024;-85
2021/09/02 03:58:52;;;;;;;22.25;8.27;;;;;;;11.55;100.00;101679.50;5052128;28;20032;-85
2021/09/02 04:01:18;;;;;;;21.02;7.28;;;;;;;11.54;100.00;101678.59;5081156;22;20109;-82
2021/09/02 04:03:43;;;;;;;23.35;7.55;;;;;;;11.62;100.00;101683.78;5075904;28;20028;-82
2021/09/02 04:06:09;;;;;;;13.85;6.38;;;;;;;11.65;100.00;101688.97;5077733;28;20106;-82
2021/09/02 04:08:34;;;;;;;20.13;8.20;;;;;;;11.69;100.00;101677.69;5076164;28;20020;-81
2021/09/02 04:10:59;;;;;;;19.83;7.30;;;;;;;11.68;100.00;101684.63;5075246;28;20102;-82
2021/09/02 04:13:24;;;;;;;18.30;7.53;;;;;;;11.71;100.00;101689.78;5076042;28;20098;-82
2021/09/02 04:15:50;;;;;;;16.85;7.13;;;;;;;11.68;100.00;101687.22;5077199;28;20031;-82
2021/09/02 04:18:15;;;;;;;17.95;6.93;;;;;;;11.71;100.00;101687.19;5076819;28;20024;-82
2021/09/02 04:20:41;;;;;;;19.23;7.53;;;;;;;11.78;100.00;101694.97;5076172;28;20473;-82
2021/09/02 04:23:06;;;;;;;15.63;7.15;;;;;;;11.83;100.00;101695.81;5078482;28;20069;-82
2021/09/02 04:25:32;;;;;;;17.15;7.50;;;;;;;11.82;100.00;101687.13;5077526;28;20039;-82
2021/09/02 04:27:57;;;;;;;16.77;7.55;;;;;;;11.83;100.00;101683.69;5077117;28;20024;-82
2021/09/02 04:30:22;;;;;;;20.30;7.82;;;;;;;11.84;100.00;101688.00;5075192;28;20021;-82
2021/09/02 04:32:47;;;;;;;16.42;7.22;;;;;;;11.87;100.00;101690.59;5075488;28;20024;-82
2021/09/02 04:35:13;;;;;;;16.60;8.23;;;;;;;11.88;100.00;101691.47;5076682;28;20030;-82
2021/09/02 04:37:39;;;;;;;19.88;8.90;;;;;;;11.89;100.00;101694.06;5076202;28;20026;-82
2021/09/02 04:40:08;;;;;;;20.95;8.98;;;;;;;11.89;100.00;101688.03;5075875;28;20024;-82
2021/09/02 04:42:34;;;;;;;17.98;8.00;;;;;;;11.95;100.00;101688.84;5076967;28;20024;-82
2021/09/02 04:45:00;;;;;;;18.02;8.20;;;;;;;11.93;100.00;101685.38;5076277;28;20016;-82
2021/09/02 04:47:26;;;;;;;20.23;9.50;;;;;;;11.94;100.00;101691.44;5076917;28;20020;-82
2021/09/02 04:49:51;;;;;;;20.92;9.57;;;;;;;11.95;100.00;101693.19;5077047;28;20538;-82
2021/09/02 04:52:17;;;;;;;20.25;9.70;;;;;;;11.98;100.00;101691.44;5076755;28;20032;-82
2021/09/02 04:54:42;;;;;;;23.23;9.75;;;;;;;11.97;100.00;101694.00;5077993;28;20043;-82
2021/09/02 04:57:07;;;;;;;19.48;9.60;;;;;;;11.98;100.00;101696.63;5077189;28;20058;-81
2021/09/02 04:59:33;;;;;;;18.88;8.93;;;;;;;11.96;100.00;101694.91;5076586;28;20020;-82
2021/09/02 05:01:58;;;;;;;22.25;10.93;;;;;;;11.96;100.00;101690.56;5076593;28;20020;-82
2021/09/02 05:04:23;;;;;;;18.85;9.10;;;;;;;12.03;100.00;101696.59;5077249;28;20024;-82
2021/09/02 05:06:49;;;;;;;18.40;9.63;;;;;;;12.01;100.00;101694.84;5078271;28;20040;-82
2021/09/02 05:09:14;;;;;;;18.38;9.60;;;;;;;12.04;100.00;101693.13;5077862;28;20083;-82
2021/09/02 05:11:39;;;;;;;17.92;9.68;;;;;;;12.08;100.00;101702.63;5080339;28;20040;-82
2021/09/02 05:14:05;;;;;;;20.40;9.20;;;;;;;12.14;100.00;101694.78;5080636;28;20503;-83
2021/09/02 05:16:30;;;;;;;17.98;8.95;;;;;;;12.22;100.00;101694.72;5080761;28;20051;-84
2021/09/02 05:18:55;;;;;;;18.83;9.93;;;;;;;12.25;100.00;101696.44;5078498;28;20030;-84
2021/09/02 05:21:20;;;;;;;19.75;9.90;;;;;;;12.29;100.00;101703.38;5076653;28;20048;-86
2021/09/02 05:23:46;;;;;;;17.80;9.45;;;;;;;12.32;100.00;101703.34;5075113;28;20021;-86
2021/09/02 05:26:11;;;;;;;19.25;9.82;;;;;;;12.42;100.00;101700.66;5074928;28;20036;-86
2021/09/02 05:28:36;;;;;;;17.25;9.15;;;;;;;12.41;100.00;101703.28;5074588;28;20039;-86
2021/09/02 05:31:01;;;;;;;16.98;9.45;;;;;;;12.41;100.00;101703.28;5074388;28;20021;-86
2021/09/02 05:33:27;;;;;;;18.85;9.43;;;;;;;12.51;100.00;101699.72;5075782;28;20104;-86
2021/09/02 05:35:52;;;;;;;22.52;9.75;;;;;;;12.56;100.00;101699.69;5074515;28;20024;-86
2021/09/02 05:38:17;;;;;;;20.25;9.68;;;;;;;12.61;100.00;101703.13;5074501;28;20024;-86
2021/09/02 05:40:44;;;;;;;19.92;9.68;;;;;;;12.53;100.00;101711.00;5078975;28;20052;-82
2021/09/02 05:43:10;;;;;;;20.90;9.98;;;;;;;12.55;100.00;101701.41;5080759;28;20529;-82
2021/09/02 05:45:35;;;;;;;18.88;10.38;;;;;;;12.57;100.00;101704.03;5080705;28;20111;-83
2021/09/02 05:48:03;;;;;;;21.15;9.75;;;;;;;12.72;100.00;101710.84;5080071;28;20396;-83
2021/09/02 05:50:29;;;;;;;17.00;9.43;;;;;;;12.84;100.00;101711.59;5077702;28;20020;-83
2021/09/02 05:52:54;;;;;;;15.10;9.35;;;;;;;13.01;100.00;101707.97;5077764;28;20026;-83
2021/09/02 05:55:20;;;;;;;19.45;9.52;;;;;;;12.88;100.00;101710.69;5078153;28;20507;-83
2021/09/02 05:57:46;;;;;;;20.17;10.05;;;;;;;13.00;100.00;101698.44;5078647;28;20388;-82
2021/09/02 06:00:11;;;;;;;17.83;9.38;;;;;;;13.13;100.00;101705.25;5078674;28;20035;-82
2021/09/02 06:02:37;;;;;;;19.35;9.98;;;;;;;13.23;100.00;101701.66;5080558;28;20086;-82
2021/09/02 06:05:03;;;;;;;17.80;8.90;;;;;;;13.18;100.00;101702.56;5078627;28;20087;-82
2021/09/02 06:07:28;;;;;;;19.40;8.98;;;;;;;13.60;100.00;101701.25;5080852;28;20448;-83
2021/09/02 06:09:53;;;;;;;17.33;9.43;;;;;;;13.75;100.00;101706.28;5077605;28;20028;-83
2021/09/02 06:12:18;;;;;;;21.15;9.10;;;;;;;14.49;100.00;101700.84;5080257;28;20036;-82
2021/09/02 06:14:44;;;;;;;17.55;8.82;;;;;;;14.55;100.00;101712.13;5078943;28;20088;-82
2021/09/02 06:17:09;;;;;;;18.38;8.57;;;;;;;14.70;100.00;101720.56;5080537;28;20028;-82
2021/09/02 06:19:34;;;;;;;17.83;8.95;;;;;;;14.70;100.00;101719.69;5078221;28;20489;-82
2021/09/02 06:21:59;;;;;;;14.88;8.82;;;;;;;14.52;100.00;101723.47;5077961;28;20021;-82
2021/09/02 06:24:25;;;;;;;21.70;9.27;;;;;;;14.88;100.00;101728.97;5078381;28;20059;-82
2021/09/02 06:26:50;;;;;;;21.00;8.80;;;;;;;14.57;100.00;101724.28;5079146;28;20488;-82
2021/09/02 06:29:15;;;;;;;18.80;9.65;;;;;;;14.47;100.00;101728.75;5079947;28;20032;-82
2021/09/02 06:31:41;;;;;;;20.15;9.88;;;;;;;14.58;100.00;101725.13;5079330;28;20036;-83
2021/09/02 06:34:06;;;;;;;19.40;8.25;;;;;;;14.62;100.00;101726.78;5078604;28;20024;-83
2021/09/02 06:36:31;;;;;;;17.38;8.40;;;;;;;14.82;100.00;101735.16;5078371;28;20031;-83
2021/09/02 06:38:57;;;;;;;19.65;8.75;;;;;;;14.37;100.00;101731.50;5079178;28;20051;-82
2021/09/02 06:41:22;;;;;;;16.77;8.90;;;;;;;14.34;100.00;101737.63;5078230;28;20017;-82
2021/09/02 06:43:47;;;;;;;18.58;8.70;;;;;;;14.73;100.00;101733.56;5078820;28;20024;-82
2021/09/02 06:46:12;;;;;;;18.00;8.68;;;;;;;14.72;100.00;101742.31;5077977;28;20461;-82
2021/09/02 06:48:38;;;;;;;22.08;9.93;;;;;;;14.94;100.00;101744.56;5077409;28;20024;-82
2021/09/02 06:51:03;;;;;;;20.52;8.88;;;;;;;14.61;100.00;101743.34;5077277;28;20025;-82
2021/09/02 06:53:28;;;;;;;21.55;9.43;;;;;;;14.57;100.00;101742.53;5078016;28;20031;-83
2021/09/02 06:55:53;;;;;;;15.95;7.85;;;;;;;14.56;100.00;101740.81;5079017;28;20384;-83
2021/09/02 06:58:19;;;;;;;19.48;9.18;;;;;;;14.77;100.00;101743.97;5081707;28;20035;-83
2021/09/02 07:00:44;;;;;;;15.18;8.40;;;;;;;15.97;100.00;101737.34;5078960;28;20377;-83
2021/09/02 07:03:09;;;;;;;14.93;7.97;;;;;;;15.58;100.00;101745.13;5079627;28;20032;-84
2021/09/02 07:05:35;;;;;;;18.52;8.55;;;;;;;15.63;100.00;101745.84;5079921;28;20024;-82
2021/09/02 07:08:00;;;;;;;16.40;8.50;;;;;;;15.46;100.00;101743.59;5079233;28;20039;-83
2021/09/02 07:10:25;;;;;;;19.98;9.00;;;;;;;14.94;100.00;101744.56;5080846;28;20092;-82
2021/09/02 07:12:51;;;;;;;20.90;8.65;;;;;;;14.90;100.00;101753.31;5077954;28;20028;-82
2021/09/02 07:15:16;;;;;;;18.00;8.57;;;;;;;16.52;100.00;101747.41;5078869;28;20093;-83
2021/09/02 07:17:42;;;;;;;15.73;7.90;;;;;;;16.59;100.00;101745.50;5080166;28;20055;-82
2021/09/02 07:20:07;;;;;;;18.42;8.55;;;;;;;16.57;100.00;101748.16;5078777;28;20039;-82
2021/09/02 07:22:33;;;;;;;18.20;8.63;;;;;;;16.41;100.00;101748.56;5079285;28;20070;-82
2021/09/02 07:24:58;;;;;;;17.35;7.15;;;;;;;16.74;100.00;101754.75;5080776;28;20028;-83
2021/09/02 07:27:24;;;;;;;17.35;7.93;;;;;;;17.09;100.00;101756.53;5079547;28;20024;-82
2021/09/02 07:29:49;;;;;;;15.85;7.50;;;;;;;17.07;100.00;101753.06;5080925;28;20095;-83
2021/09/02 07:32:14;;;;;;;16.63;8.52;;;;;;;16.62;100.00;101750.66;5079370;28;20020;-83
2021/09/02 07:34:39;;;;;;;18.08;7.72;;;;;;;16.99;100.00;101750.66;5079217;28;20020;-83
2021/09/02 07:37:05;;;;;;;16.35;7.55;;;;;;;16.66;100.00;101762.81;5079758;28;20031;-82
2021/09/02 07:39:30;;;;;;;13.90;7.22;;;;;;;16.54;100.00;101763.97;5080799;28;20031;-83
2021/09/02 07:41:55;;;;;;;16.70;7.28;;;;;;;16.40;100.00;101765.19;5079026;28;20020;-83
2021/09/02 07:44:21;;;;;;;16.50;7.43;;;;;;;16.54;100.00;101765.72;5078904;28;20028;-83
2021/09/02 07:46:46;;;;;;;14.50;7.30;;;;;;;16.85;100.00;101770.25;5079066;28;20392;-82
2021/09/02 07:49:11;;;;;;;15.85;7.30;;;;;;;16.61;100.00;101774.28;5079492;28;20032;-82
2021/09/02 07:51:37;;;;;;;16.55;7.82;;;;;;;16.58;100.00;101775.22;5081076;28;20102;-82
2021/09/02 07:54:02;;;;;;;16.45;8.07;;;;;;;16.32;100.00;101778.47;5077284;28;20028;-83
2021/09/02 07:56:28;;;;;;;18.23;6.95;;;;;;;16.39;100.00;101779.19;5077874;28;20107;-83
2021/09/02 07:58:53;;;;;;;17.92;7.53;;;;;;;16.41;100.00;101777.38;5080415;28;20563;-83
2021/09/02 08:01:22;;;;;;;16.92;7.47;;;;;;;17.04;100.00;101774.13;5077466;28;20036;-83
2021/09/02 08:03:48;;;;;;;17.83;7.90;;;;;;;16.93;100.00;101770.91;5077522;28;20429;-82
2021/09/02 08:06:14;;;;;;;17.85;7.30;;;;;;;16.85;100.00;101773.72;5077850;28;20056;-83
2021/09/02 08:08:39;;;;;;;13.23;7.32;;;;;;;16.79;100.00;101769.50;5077603;28;20032;-83
2021/09/02 08:11:04;;;;;;;16.10;6.88;;;;;;;17.15;100.00;101765.97;5080126;28;20024;-83
2021/09/02 08:13:30;;;;;;;14.35;6.80;;;;;;;17.35;100.00;101781.19;5077087;28;20120;-83
2021/09/02 08:15:55;;;;;;;15.07;7.00;;;;;;;17.87;100.00;101777.16;5079643;28;20020;-83
2021/09/02 08:18:20;;;;;;;13.43;6.53;;;;;;;17.79;100.00;101769.47;5080119;28;20020;-83
2021/09/02 08:20:46;;;;;;;15.05;6.80;;;;;;;18.01;100.00;101768.84;5077293;28;20017;-82
2021/09/02 08:23:11;;;;;;;13.43;6.65;;;;;;;17.90;100.00;101771.81;5077151;28;20085;-83
2021/09/02 08:25:36;;;;;;;14.88;6.35;;;;;;;18.08;100.00;101775.66;5079367;28;20040;-83
2021/09/02 08:28:02;;;;;;;14.82;6.45;;;;;;;18.45;100.00;101775.38;5079398;28;20388;-83
2021/09/02 08:30:28;;;;;;;17.55;6.10;;;;;;;17.83;100.00;101781.63;5079462;28;20078;-83
2021/09/02 08:32:54;;;;;;;12.48;6.07;;;;;;;17.50;100.00;101778.16;5076737;28;20020;-83
2021/09/02 08:35:26;;;;;;;14.25;5.97;;;;;;;17.44;100.00;101784.41;5077405;28;20456;-83
2021/09/02 08:37:53;;;;;;;15.80;6.50;;;;;;;17.42;100.00;101780.97;5077815;28;20060;-83
2021/09/02 08:40:22;;;;;;;14.05;5.03;;;;;;;18.42;100.00;101779.88;5077724;28;20027;-83
2021/09/02 08:42:47;;;;;;;14.10;5.55;;;;;;;18.17;100.00;101776.22;5080167;28;20054;-83
2021/09/02 08:45:14;;;;;;;14.85;6.07;;;;;;;17.87;100.00;101779.78;5078598;28;20023;-83
2021/09/02 08:47:44;;;;;;;18.55;5.43;;;;;;;17.93;100.00;101776.97;5081545;28;20028;-83
2021/09/02 08:50:10;;;;;;;14.32;6.45;;;;;;;17.57;100.00;101779.69;5083104;28;20496;-83
2021/09/02 08:52:36;;;;;;;13.95;6.55;;;;;;;17.80;100.00;101773.00;5081795;28;20024;-83
2021/09/02 08:55:03;;;;;;;12.93;5.75;;;;;;;17.97;100.00;101768.09;5083415;28;20088;-83
2021/09/02 08:57:29;;;;;;;14.80;5.82;;;;;;;17.55;100.00;101771.03;5082554;28;20017;-83
2021/09/02 08:59:54;;;;;;;18.08;6.00;;;;;;;17.66;100.00;101768.94;5083207;28;20058;-83
2021/09/02 09:02:31;;;;;;;12.73;4.70;;;;;;;17.18;100.00;101779.88;5081206;28;20074;-82
2021/09/02 09:05:08;;;;;;;17.52;5.35;;;;;;;17.05;100.00;101769.75;5082165;28;20112;-82
2021/09/02 09:07:36;;;;;;;15.80;5.30;;;;;;;17.18;100.00;101768.50;5083043;28;20074;-83
2021/09/02 09:10:03;;;;;;;13.63;4.35;;;;;;;16.85;100.00;101759.78;5081744;28;20476;-82
2021/09/02 09:12:34;;;;;;;13.98;5.18;;;;;;;16.64;100.00;101772.47;5081155;28;20039;-82
2021/09/02 09:14:59;;;;;;;11.25;5.13;;;;;;;16.71;100.00;101776.63;5081660;28;20020;-82
2021/09/02 09:17:25;;;;;;;14.40;4.65;;;;;;;17.05;100.00;101775.84;5084251;28;20391;-83
2021/09/02 09:19:52;;;;;;;13.63;5.18;;;;;;;16.88;100.00;101772.81;5082728;28;20017;-83
2021/09/02 09:22:19;;;;;;;14.02;5.35;;;;;;;16.53;100.00;101774.47;5083098;28;20028;-83
2021/09/02 09:24:56;;;;;;;15.52;5.30;;;;;;;16.76;100.00;101772.19;5082702;28;20024;-83
2021/09/02 09:27:37;;;;;;;12.40;5.18;;;;;;;16.74;100.00;101773.94;5082340;28;20021;-83
2021/09/02 09:30:09;;;;;;;17.83;6.22;;;;;;;16.67;100.00;101767.16;5083410;28;20393;-83
2021/09/02 09:32:41;;;;;;;11.30;4.72;;;;;;;16.50;100.00;101770.19;5081629;28;20024;-83
2021/09/02 09:35:09;;;;;;;13.32;4.95;;;;;;;16.66;100.00;101767.19;5081585;28;20499;-83
2021/09/02 09:37:35;;;;;;;13.15;4.75;;;;;;;16.86;100.00;101769.34;5081683;28;20024;-83
2021/09/02 09:40:10;;;;;;;16.10;5.18;;;;;;;16.76;100.00;101773.97;5080424;28;20396;-83
2021/09/02 09:42:36;;;;;;;12.30;5.10;;;;;;;16.92;100.00;101774.44;5080774;28;20021;-82
2021/09/02 09:45:01;;;;;;;11.32;4.82;;;;;;;17.01;100.00;101774.19;5080620;28;20039;-83
2021/09/02 09:47:33;;;;;;;13.98;5.15;;;;;;;17.00;100.00;101772.50;5080215;28;20025;-82
2021/09/02 09:50:02;;;;;;;14.32;5.32;;;;;;;16.78;100.00;101782.66;5083662;28;20020;-83
2021/09/02 09:52:33;;;;;;;12.32;4.45;;;;;;;16.75;100.00;101788.81;5080712;28;20032;-83
2021/09/02 09:55:11;;;;;;;11.38;4.20;;;;;;;16.57;100.00;101794.47;5080220;28;20055;-83
2021/09/02 09:57:39;;;;;;;18.38;5.05;;;;;;;16.57;100.00;101799.69;5078403;28;20025;-83
2021/09/02 10:00:09;;;;;;;15.55;4.70;;;;;;;16.52;100.00;101804.19;5079029;28;20031;-83
2021/09/02 10:02:39;;;;;;;11.52;4.65;;;;;;;16.55;100.00;101799.72;5087640;22;20111;-86
2021/09/02 10:05:08;;;;;;;11.48;4.32;;;;;;;16.44;100.00;101803.47;5055675;28;20025;-86
2021/09/02 10:07:35;;;;;;;14.93;4.97;;;;;;;16.57;100.00;101800.56;5055464;28;20032;-85
2021/09/02 10:10:02;;;;;;;15.68;5.32;;;;;;;16.68;100.00;101802.91;5055382;28;20029;-86
2021/09/02 10:12:34;;;;;;;14.43;5.40;;;;;;;16.69;100.00;101809.03;5055054;28;20404;-86
2021/09/02 10:15:02;;;;;;;13.65;5.03;;;;;;;16.82;100.00;101805.25;5054175;28;20028;-86
2021/09/02 10:17:28;;;;;;;16.45;5.07;;;;;;;16.94;100.00;101806.72;5054057;28;20082;-86
2021/09/02 10:19:53;;;;;;;14.57;4.90;;;;;;;17.01;100.00;101798.66;5054039;28;20115;-86
2021/09/02 10:22:19;;;;;;;13.60;4.88;;;;;;;17.07;100.00;101804.66;5053918;28;20023;-85
2021/09/02 10:24:45;;;;;;;17.25;4.85;;;;;;;17.19;100.00;101805.19;5055106;28;20029;-85
2021/09/02 10:27:16;;;;;;;11.93;4.43;;;;;;;17.21;100.00;101798.16;5054457;28;20473;-85
2021/09/02 10:29:42;;;;;;;14.63;4.82;;;;;;;17.15;100.00;101798.31;5053824;28;20123;-85
2021/09/02 10:32:23;;;;;;;11.02;5.28;;;;;;;16.79;100.00;101803.56;5053755;28;20108;-86
2021/09/02 10:34:53;;;;;;;12.48;4.97;;;;;;;16.55;100.00;101802.34;5055112;28;20611;-85
2021/09/02 10:37:33;;;;;;;13.95;4.43;;;;;;;16.37;100.00;101801.91;5054601;28;20123;-87
2021/09/02 10:40:08;;;;;;;12.32;4.40;;;;;;;16.62;100.00;101804.81;5056158;28;20021;-86
2021/09/02 10:42:47;;;;;;;12.80;3.85;;;;;;;16.66;100.00;101809.13;5055731;28;20393;-86
2021/09/02 10:45:24;;;;;;;14.05;4.55;;;;;;;16.70;100.00;101809.00;5054252;28;20064;-86
2021/09/02 10:47:53;;;;;;;11.88;4.80;;;;;;;16.47;100.00;101806.91;5054785;28;20067;-86
2021/09/02 10:50:21;;;;;;;13.35;4.65;;;;;;;16.80;100.00;101809.66;5053497;28;20024;-86
2021/09/02 10:52:47;;;;;;;13.20;4.53;;;;;;;16.93;100.00;101803.25;5054820;28;20032;-86
2021/09/02 10:55:33;;;;;;;15.60;4.68;;;;;;;16.88;100.00;101801.63;5053242;28;20021;-86
2021/09/02 10:58:01;;;;;;;12.60;4.10;;;;;;;16.76;100.00;101814.13;5054502;28;20079;-86
2021/09/02 11:00:44;;;;;;;14.20;4.22;;;;;;;16.76;100.00;101808.03;5053155;28;20078;-86
2021/09/02 11:03:22;;;;;;;11.80;4.20;;;;;;;16.76;100.00;101810.63;5054425;28;20112;-86
2021/09/02 11:05:49;;;;;;;15.50;4.45;;;;;;;16.73;100.00;101813.31;5053883;28;20361;-86